sensor_id;sensor_type;location;lat;lon;timestamp;pressure;altitude;pressure_sealevel;temperature;humidity
54948;BME280;41113;41.882;12.530;2022-08-21T00:02:17;100617.22;;;24.96;70.55
54948;BME280;41113;41.882;12.530;2022-08-21T00:04:43;100619.91;;;25.03;70.36
54948;BME280;41113;41.882;12.530;2022-08-21T00:07:08;100627.13;;;24.97;70.96
54948;BME280;41113;41.882;12.530;2022-08-21T00:09:34;100619.13;;;24.96;70.19
54948;BME280;41113;41.882;12.530;2022-08-21T00:11:59;100620.44;;;24.93;70.96
54948;BME280;41113;41.882;12.530;2022-08-21T00:14:24;100621.38;;;24.87;70.85
54948;BME280;41113;41.882;12.530;2022-08-21T00:16:50;100612.06;;;24.88;71.08
54948;BME280;41113;41.882;12.530;2022-08-21T00:19:16;100621.50;;;24.92;70.69
54948;BME280;41113;41.882;12.530;2022-08-21T00:21:41;100617.38;;;25.01;71.03
54948;BME280;41113;41.882;12.530;2022-08-21T00:24:07;100620.91;;;24.90;71.46
54948;BME280;41113;41.882;12.530;2022-08-21T00:26:32;100625.66;;;24.83;71.19
54948;BME280;41113;41.882;12.530;2022-08-21T00:28:57;100626.56;;;24.77;70.79
54948;BME280;41113;41.882;12.530;2022-08-21T00:31:23;100620.44;;;24.93;70.34
54948;BME280;41113;41.882;12.530;2022-08-21T00:33:48;100623.50;;;24.85;70.68
54948;BME280;41113;41.882;12.530;2022-08-21T00:36:14;100623.59;;;24.78;70.84
54948;BME280;41113;41.882;12.530;2022-08-21T00:38:40;100628.53;;;24.70;72.02
54948;BME280;41113;41.882;12.530;2022-08-21T00:41:08;100619.56;;;24.63;72.06
54948;BME280;41113;41.882;12.530;2022-08-21T00:43:35;100626.59;;;24.59;72.41
54948;BME280;41113;41.882;12.530;2022-08-21T00:46:02;100624.22;;;24.62;71.49
54948;BME280;41113;41.882;12.530;2022-08-21T00:48:28;100623.47;;;24.55;71.55
54948;BME280;41113;41.882;12.530;2022-08-21T00:51:02;100618.81;;;24.56;71.32
54948;BME280;41113;41.882;12.530;2022-08-21T00:53:29;100620.03;;;24.60;70.91
54948;BME280;41113;41.882;12.530;2022-08-21T00:55:56;100618.03;;;24.67;70.74
54948;BME280;41113;41.882;12.530;2022-08-21T00:58:22;100616.06;;;24.74;70.20
54948;BME280;41113;41.882;12.530;2022-08-21T01:00:49;100620.16;;;24.65;70.67
54948;BME280;41113;41.882;12.530;2022-08-21T01:03:20;100622.16;;;24.58;70.54
54948;BME280;41113;41.882;12.530;2022-08-21T01:05:46;100620.94;;;24.54;70.63
54948;BME280;41113;41.882;12.530;2022-08-21T01:08:12;100615.78;;;24.45;70.70
54948;BME280;41113;41.882;12.530;2022-08-21T01:10:38;100620.34;;;24.51;70.26
54948;BME280;41113;41.882;12.530;2022-08-21T01:13:06;100611.13;;;24.46;70.38
54948;BME280;41113;41.882;12.530;2022-08-21T01:15:35;100613.47;;;24.42;70.68
54948;BME280;41113;41.882;12.530;2022-08-21T01:18:04;100612.41;;;24.43;70.64
54948;BME280;41113;41.882;12.530;2022-08-21T01:20:30;100609.06;;;24.41;69.93
54948;BME280;41113;41.882;12.530;2022-08-21T01:22:56;100604.31;;;24.30;70.67
54948;BME280;41113;41.882;12.530;2022-08-21T01:25:21;100604.75;;;24.27;71.24
54948;BME280;41113;41.882;12.530;2022-08-21T01:27:47;100604.75;;;24.27;71.31
54948;BME280;41113;41.882;12.530;2022-08-21T01:30:20;100602.00;;;24.27;71.24
54948;BME280;41113;41.882;12.530;2022-08-21T01:32:47;100601.94;;;24.34;70.52
54948;BME280;41113;41.882;12.530;2022-08-21T01:35:14;100596.84;;;24.37;70.35
54948;BME280;41113;41.882;12.530;2022-08-21T01:37:41;100600.22;;;24.39;70.17
54948;BME280;41113;41.882;12.530;2022-08-21T01:40:08;100597.75;;;24.49;69.88
54948;BME280;41113;41.882;12.530;2022-08-21T01:42:34;100595.00;;;24.31;71.15
54948;BME280;41113;41.882;12.530;2022-08-21T01:45:00;100600.31;;;24.26;71.05
54948;BME280;41113;41.882;12.530;2022-08-21T01:47:26;100588.59;;;24.37;70.10
54948;BME280;41113;41.882;12.530;2022-08-21T01:49:52;100596.56;;;24.45;69.84
54948;BME280;41113;41.882;12.530;2022-08-21T01:52:18;100586.78;;;24.31;70.48
54948;BME280;41113;41.882;12.530;2022-08-21T01:54:43;100591.19;;;24.32;70.58
54948;BME280;41113;41.882;12.530;2022-08-21T01:57:09;100590.88;;;24.22;70.89
54948;BME280;41113;41.882;12.530;2022-08-21T01:59:35;100591.69;;;24.23;70.99
54948;BME280;41113;41.882;12.530;2022-08-21T02:02:00;100594.22;;;24.24;70.82
54948;BME280;41113;41.882;12.530;2022-08-21T02:04:26;100590.47;;;24.18;71.08
54948;BME280;41113;41.882;12.530;2022-08-21T02:06:52;100586.06;;;24.17;71.33
54948;BME280;41113;41.882;12.530;2022-08-21T02:09:18;100583.31;;;24.17;71.27
54948;BME280;41113;41.882;12.530;2022-08-21T02:11:44;100584.63;;;24.15;71.60
54948;BME280;41113;41.882;12.530;2022-08-21T02:14:11;100578.75;;;24.11;71.67
54948;BME280;41113;41.882;12.530;2022-08-21T02:16:40;100582.59;;;24.04;72.40
54948;BME280;41113;41.882;12.530;2022-08-21T02:19:06;100571.63;;;24.04;72.29
54948;BME280;41113;41.882;12.530;2022-08-21T02:21:32;100574.22;;;23.99;72.38
54948;BME280;41113;41.882;12.530;2022-08-21T02:23:57;100578.94;;;23.92;72.89
54948;BME280;41113;41.882;12.530;2022-08-21T02:26:23;100575.59;;;23.89;72.51
54948;BME280;41113;41.882;12.530;2022-08-21T02:28:49;100582.28;;;23.94;72.76
54948;BME280;41113;41.882;12.530;2022-08-21T02:31:14;100573.31;;;24.05;71.88
54948;BME280;41113;41.882;12.530;2022-08-21T02:33:40;100573.16;;;24.00;72.91
54948;BME280;41113;41.882;12.530;2022-08-21T02:36:07;100570.72;;;23.92;72.89
54948;BME280;41113;41.882;12.530;2022-08-21T02:38:34;100572.22;;;23.87;73.24
54948;BME280;41113;41.882;12.530;2022-08-21T02:41:07;100566.38;;;23.84;72.84
54948;BME280;41113;41.882;12.530;2022-08-21T02:43:34;100574.81;;;23.82;73.21
54948;BME280;41113;41.882;12.530;2022-08-21T02:46:00;100576.16;;;23.73;73.31
54948;BME280;41113;41.882;12.530;2022-08-21T02:48:28;100576.00;;;23.68;73.71
54948;BME280;41113;41.882;12.530;2022-08-21T02:50:59;100570.78;;;23.60;74.18
54948;BME280;41113;41.882;12.530;2022-08-21T02:53:25;100573.31;;;23.62;73.32
54948;BME280;41113;41.882;12.530;2022-08-21T02:55:52;100574.75;;;23.64;73.76
54948;BME280;41113;41.882;12.530;2022-08-21T02:58:21;100571.56;;;23.67;73.06
54948;BME280;41113;41.882;12.530;2022-08-21T03:00:47;100568.13;;;23.78;72.47
54948;BME280;41113;41.882;12.530;2022-08-21T03:03:13;100574.16;;;23.62;73.31
54948;BME280;41113;41.882;12.530;2022-08-21T03:05:39;100566.88;;;23.49;73.63
54948;BME280;41113;41.882;12.530;2022-08-21T03:08:08;100568.31;;;23.52;73.81
54948;BME280;41113;41.882;12.530;2022-08-21T03:10:36;100569.16;;;23.52;73.97
54948;BME280;41113;41.882;12.530;2022-08-21T03:13:02;100570.50;;;23.43;74.46
54948;BME280;41113;41.882;12.530;2022-08-21T03:15:28;100566.91;;;23.43;73.94
54948;BME280;41113;41.882;12.530;2022-08-21T03:17:54;100564.13;;;23.49;73.77
54948;BME280;41113;41.882;12.530;2022-08-21T03:20:25;100561.81;;;23.71;73.14
54948;BME280;41113;41.882;12.530;2022-08-21T03:22:52;100551.31;;;23.68;73.55
54948;BME280;41113;41.882;12.530;2022-08-21T03:25:19;100559.84;;;23.60;73.93
54948;BME280;41113;41.882;12.530;2022-08-21T03:27:45;100561.81;;;23.71;73.10
54948;BME280;41113;41.882;12.530;2022-08-21T03:30:12;100564.03;;;23.63;73.49
54948;BME280;41113;41.882;12.530;2022-08-21T03:32:38;100564.50;;;23.53;74.32
54948;BME280;41113;41.882;12.530;2022-08-21T03:35:04;100564.09;;;23.56;73.95
54948;BME280;41113;41.882;12.530;2022-08-21T03:37:30;100566.53;;;23.64;73.27
54948;BME280;41113;41.882;12.530;2022-08-21T03:39:55;100566.88;;;23.74;72.98
54948;BME280;41113;41.882;12.530;2022-08-21T03:42:21;100574.59;;;23.59;74.05
54948;BME280;41113;41.882;12.530;2022-08-21T03:44:47;100576.09;;;23.55;73.73
54948;BME280;41113;41.882;12.530;2022-08-21T03:47:12;100568.13;;;23.78;72.66
54948;BME280;41113;41.882;12.530;2022-08-21T03:49:37;100569.72;;;23.86;72.35
54948;BME280;41113;41.882;12.530;2022-08-21T03:52:04;100568.44;;;23.88;72.15
54948;BME280;41113;41.882;12.530;2022-08-21T03:54:29;100569.25;;;23.89;71.84
54948;BME280;41113;41.882;12.530;2022-08-21T03:56:55;100563.00;;;24.00;71.43
54948;BME280;41113;41.882;12.530;2022-08-21T03:59:21;100569.06;;;24.09;70.92
54948;BME280;41113;41.882;12.530;2022-08-21T04:01:54;100560.53;;;24.17;70.59
54948;BME280;41113;41.882;12.530;2022-08-21T04:04:20;100569.50;;;24.24;70.17
54948;BME280;41113;41.882;12.530;2022-08-21T04:06:45;100563.56;;;24.27;69.81
54948;BME280;41113;41.882;12.530;2022-08-21T04:09:11;100574.84;;;24.19;69.85
54948;BME280;41113;41.882;12.530;2022-08-21T04:11:36;100570.78;;;24.03;70.27
54948;BME280;41113;41.882;12.530;2022-08-21T04:14:02;100572.69;;;23.84;71.49
54948;BME280;41113;41.882;12.530;2022-08-21T04:16:27;100580.53;;;23.81;71.27
54948;BME280;41113;41.882;12.530;2022-08-21T04:18:53;100584.31;;;23.55;72.22
54948;BME280;41113;41.882;12.530;2022-08-21T04:21:18;100586.59;;;23.33;73.14
54948;BME280;41113;41.882;12.530;2022-08-21T04:23:43;100582.06;;;23.20;73.49
54948;BME280;41113;41.882;12.530;2022-08-21T04:26:10;100585.56;;;23.27;72.69
54948;BME280;41113;41.882;12.530;2022-08-21T04:28:35;100594.97;;;23.07;72.10
54948;BME280;41113;41.882;12.530;2022-08-21T04:31:01;100590.78;;;23.04;72.16
54948;BME280;41113;41.882;12.530;2022-08-21T04:33:26;100598.16;;;23.10;71.80
54948;BME280;41113;41.882;12.530;2022-08-21T04:35:52;100590.53;;;23.12;71.18
54948;BME280;41113;41.882;12.530;2022-08-21T04:38:17;100591.94;;;23.21;70.79
54948;BME280;41113;41.882;12.530;2022-08-21T04:40:43;100595.19;;;23.37;70.22
54948;BME280;41113;41.882;12.530;2022-08-21T04:43:10;100598.66;;;23.57;69.43
54948;BME280;41113;41.882;12.530;2022-08-21T04:45:38;100596.75;;;24.80;65.54
54948;BME280;41113;41.882;12.530;2022-08-21T04:48:06;100602.06;;;25.89;60.29
54948;BME280;41113;41.882;12.530;2022-08-21T04:51:11;100601.81;;;26.25;58.99
54948;BME280;41113;41.882;12.530;2022-08-21T04:53:37;100596.59;;;26.64;58.40
54948;BME280;41113;41.882;12.530;2022-08-21T04:56:28;100590.63;;;26.95;56.56
54948;BME280;41113;41.882;12.530;2022-08-21T04:58:59;100593.97;;;27.26;56.68
54948;BME280;41113;41.882;12.530;2022-08-21T05:01:28;100592.59;;;27.40;56.45
54948;BME280;41113;41.882;12.530;2022-08-21T05:03:57;100592.00;;;27.38;54.79
54948;BME280;41113;41.882;12.530;2022-08-21T05:06:25;100595.97;;;27.76;54.32
54948;BME280;41113;41.882;12.530;2022-08-21T05:08:52;100599.53;;;28.48;53.03
54948;BME280;41113;41.882;12.530;2022-08-21T05:11:18;100602.25;;;29.14;49.92
54948;BME280;41113;41.882;12.530;2022-08-21T05:13:45;100600.13;;;29.80;49.47
54948;BME280;41113;41.882;12.530;2022-08-21T05:16:11;100608.78;;;30.26;48.41
54948;BME280;41113;41.882;12.530;2022-08-21T05:18:36;100610.81;;;30.51;47.78
54948;BME280;41113;41.882;12.530;2022-08-21T05:21:02;100601.28;;;30.79;45.43
54948;BME280;41113;41.882;12.530;2022-08-21T05:23:27;100603.94;;;31.36;45.51
54948;BME280;41113;41.882;12.530;2022-08-21T05:25:53;100604.72;;;32.23;44.01
54948;BME280;41113;41.882;12.530;2022-08-21T05:28:19;100605.94;;;32.82;42.84
54948;BME280;41113;41.882;12.530;2022-08-21T05:30:44;100604.66;;;33.57;41.39
54948;BME280;41113;41.882;12.530;2022-08-21T05:33:10;100609.59;;;33.65;41.16
54948;BME280;41113;41.882;12.530;2022-08-21T05:35:37;100605.00;;;33.46;41.25
54948;BME280;41113;41.882;12.530;2022-08-21T05:38:03;100611.59;;;32.61;42.35
54948;BME280;41113;41.882;12.530;2022-08-21T05:40:30;100608.66;;;33.41;40.73
54948;BME280;41113;41.882;12.530;2022-08-21T05:42:56;100604.75;;;33.76;39.62
54948;BME280;41113;41.882;12.530;2022-08-21T05:45:27;100602.44;;;32.56;40.67
54948;BME280;41113;41.882;12.530;2022-08-21T05:47:53;100605.88;;;32.07;42.43
54948;BME280;41113;41.882;12.530;2022-08-21T05:50:18;100605.94;;;32.87;41.32
54948;BME280;41113;41.882;12.530;2022-08-21T05:52:44;100602.88;;;34.00;39.67
54948;BME280;41113;41.882;12.530;2022-08-21T05:55:10;100603.09;;;32.97;39.37
54948;BME280;41113;41.882;12.530;2022-08-21T05:57:35;100607.19;;;32.40;39.99
54948;BME280;41113;41.882;12.530;2022-08-21T06:00:00;100599.81;;;31.90;41.19
54948;BME280;41113;41.882;12.530;2022-08-21T06:02:26;100611.72;;;31.70;42.84
54948;BME280;41113;41.882;12.530;2022-08-21T06:04:51;100605.59;;;31.32;43.73
54948;BME280;41113;41.882;12.530;2022-08-21T06:07:17;100605.03;;;32.22;42.78
54948;BME280;41113;41.882;12.530;2022-08-21T06:09:42;100605.91;;;31.61;42.22
54948;BME280;41113;41.882;12.530;2022-08-21T06:12:10;100602.06;;;29.48;46.99
54948;BME280;41113;41.882;12.530;2022-08-21T06:14:37;100590.34;;;29.40;48.16
54948;BME280;41113;41.882;12.530;2022-08-21T06:17:09;100594.34;;;29.87;47.22
54948;BME280;41113;41.882;12.530;2022-08-21T06:19:36;100600.13;;;29.80;46.77
54948;BME280;41113;41.882;12.530;2022-08-21T06:22:01;100591.91;;;30.95;45.16
54948;BME280;41113;41.882;12.530;2022-08-21T06:24:27;100591.91;;;30.90;44.40
54948;BME280;41113;41.882;12.530;2022-08-21T06:26:53;100596.25;;;30.65;44.60
54948;BME280;41113;41.882;12.530;2022-08-21T06:29:18;100593.34;;;30.50;44.28
54948;BME280;41113;41.882;12.530;2022-08-21T06:31:46;100598.44;;;29.79;45.90
54948;BME280;41113;41.882;12.530;2022-08-21T06:34:12;100592.19;;;29.03;48.08
54948;BME280;41113;41.882;12.530;2022-08-21T06:36:38;100593.56;;;28.35;49.88
54948;BME280;41113;41.882;12.530;2022-08-21T06:39:03;100582.28;;;29.07;47.86
54948;BME280;41113;41.882;12.530;2022-08-21T06:41:29;100588.28;;;29.90;46.13
54948;BME280;41113;41.882;12.530;2022-08-21T06:43:56;100579.44;;;29.56;46.49
54948;BME280;41113;41.882;12.530;2022-08-21T06:46:27;100579.28;;;28.87;48.50
54948;BME280;41113;41.882;12.530;2022-08-21T06:48:53;100590.13;;;28.28;50.28
54948;BME280;41113;41.882;12.530;2022-08-21T06:51:18;100589.69;;;27.64;51.64
54948;BME280;41113;41.882;12.530;2022-08-21T06:53:44;100577.94;;;28.07;50.61
54948;BME280;41113;41.882;12.530;2022-08-21T06:56:10;100587.13;;;27.74;51.37
54948;BME280;41113;41.882;12.530;2022-08-21T06:58:36;100588.94;;;27.85;51.21
54948;BME280;41113;41.882;12.530;2022-08-21T07:01:01;100588.75;;;28.08;50.82
54948;BME280;41113;41.882;12.530;2022-08-21T07:03:31;100588.09;;;28.01;50.95
54948;BME280;41113;41.882;12.530;2022-08-21T07:05:57;100580.59;;;28.18;50.46
54948;BME280;41113;41.882;12.530;2022-08-21T07:08:24;100585.00;;;27.98;51.12
54948;BME280;41113;41.882;12.530;2022-08-21T07:10:50;100585.06;;;28.03;50.81
54948;BME280;41113;41.882;12.530;2022-08-21T07:13:16;100590.28;;;28.38;50.09
54948;BME280;41113;41.882;12.530;2022-08-21T07:15:42;100590.59;;;28.41;49.92
54948;BME280;41113;41.882;12.530;2022-08-21T07:18:07;100599.41;;;28.82;49.20
54948;BME280;41113;41.882;12.530;2022-08-21T07:20:33;100586.88;;;28.31;50.77
54948;BME280;41113;41.882;12.530;2022-08-21T07:23:02;100597.47;;;28.22;50.90
54948;BME280;41113;41.882;12.530;2022-08-21T07:25:28;100592.53;;;28.85;49.78
54948;BME280;41113;41.882;12.530;2022-08-21T07:27:54;100596.06;;;28.80;49.33
54948;BME280;41113;41.882;12.530;2022-08-21T07:30:19;100592.34;;;28.69;50.00
54948;BME280;41113;41.882;12.530;2022-08-21T07:32:45;100597.09;;;28.30;50.50
54948;BME280;41113;41.882;12.530;2022-08-21T07:35:10;100589.94;;;28.56;50.08
54948;BME280;41113;41.882;12.530;2022-08-21T07:37:36;100592.34;;;29.18;49.04
54948;BME280;41113;41.882;12.530;2022-08-21T07:40:03;100589.94;;;29.54;48.11
54948;BME280;41113;41.882;12.530;2022-08-21T07:42:28;100593.38;;;29.66;47.70
54948;BME280;41113;41.882;12.530;2022-08-21T07:44:55;100586.41;;;29.95;47.26
54948;BME280;41113;41.882;12.530;2022-08-21T07:47:20;100588.75;;;30.19;46.93
54948;BME280;41113;41.882;12.530;2022-08-21T07:49:46;100586.63;;;30.31;46.38
54948;BME280;41113;41.882;12.530;2022-08-21T07:52:11;100590.69;;;30.18;46.61
54948;BME280;41113;41.882;12.530;2022-08-21T07:54:37;100585.19;;;30.23;46.57
54948;BME280;41113;41.882;12.530;2022-08-21T07:57:02;100592.38;;;29.82;47.08
54948;BME280;41113;41.882;12.530;2022-08-21T07:59:28;100580.91;;;29.63;47.56
54948;BME280;41113;41.882;12.530;2022-08-21T08:01:54;100575.75;;;29.82;46.72
54948;BME280;41113;41.882;12.530;2022-08-21T08:04:19;100575.88;;;29.97;46.83
54948;BME280;41113;41.882;12.530;2022-08-21T08:06:45;100582.38;;;29.76;45.97
54948;BME280;41113;41.882;12.530;2022-08-21T08:09:11;100583.91;;;29.30;47.37
54948;BME280;41113;41.882;12.530;2022-08-21T08:11:38;100577.00;;;29.32;48.01
54948;BME280;41113;41.882;12.530;2022-08-21T08:14:06;100575.00;;;29.55;47.55
54948;BME280;41113;41.882;12.530;2022-08-21T08:16:31;100575.13;;;29.70;47.36
54948;BME280;41113;41.882;12.530;2022-08-21T08:18:57;100571.22;;;30.03;46.78
54948;BME280;41113;41.882;12.530;2022-08-21T08:21:23;100578.19;;;30.11;46.93
54948;BME280;41113;41.882;12.530;2022-08-21T08:23:48;100571.13;;;30.30;46.34
54948;BME280;41113;41.882;12.530;2022-08-21T08:26:14;100573.09;;;30.40;45.97
54948;BME280;41113;41.882;12.530;2022-08-21T08:28:41;100574.50;;;30.52;45.54
54948;BME280;41113;41.882;12.530;2022-08-21T08:31:07;100570.31;;;30.40;45.78
54948;BME280;41113;41.882;12.530;2022-08-21T08:33:33;100570.44;;;30.13;45.55
54948;BME280;41113;41.882;12.530;2022-08-21T08:35:58;100567.84;;;29.96;46.91
54948;BME280;41113;41.882;12.530;2022-08-21T08:38:24;100563.06;;;29.91;46.76
54948;BME280;41113;41.882;12.530;2022-08-21T08:43:35;100551.91;;;30.76;45.64
54948;BME280;41113;41.882;12.530;2022-08-21T08:46:04;100547.72;;;30.68;45.24
54948;BME280;41113;41.882;12.530;2022-08-21T08:48:50;100545.38;;;30.45;45.04
54948;BME280;41113;41.882;12.530;2022-08-21T08:54:08;100540.78;;;30.65;44.12
54948;BME280;41113;41.882;12.530;2022-08-21T08:56:35;100539.69;;;30.61;45.12
54948;BME280;41113;41.882;12.530;2022-08-21T08:59:13;100534.44;;;30.75;43.48
54948;BME280;41113;41.882;12.530;2022-08-21T09:01:40;100534.66;;;30.58;45.06
54948;BME280;41113;41.882;12.530;2022-08-21T09:04:05;100525.00;;;30.76;44.99
54948;BME280;41113;41.882;12.530;2022-08-21T09:12:16;100526.50;;;31.24;43.25
54948;BME280;41113;41.882;12.530;2022-08-21T09:14:49;100517.91;;;31.26;43.77
54948;BME280;41113;41.882;12.530;2022-08-21T09:17:39;100528.34;;;30.88;41.62
54948;BME280;41113;41.882;12.530;2022-08-21T09:20:28;100524.72;;;30.62;41.49
54948;BME280;41113;41.882;12.530;2022-08-21T09:25:46;100523.91;;;30.15;44.02
54948;BME280;41113;41.882;12.530;2022-08-21T09:28:16;100523.91;;;30.15;44.09
54948;BME280;41113;41.882;12.530;2022-08-21T09:30:41;100516.25;;;30.27;43.58
54948;BME280;41113;41.882;12.530;2022-08-21T09:33:09;100517.66;;;30.34;43.78
54948;BME280;41113;41.882;12.530;2022-08-21T09:35:36;100510.22;;;30.50;43.38
54948;BME280;41113;41.882;12.530;2022-08-21T09:38:06;100514.63;;;30.46;43.08
54948;BME280;41113;41.882;12.530;2022-08-21T09:40:42;100513.53;;;30.52;42.80
54948;BME280;41113;41.882;12.530;2022-08-21T09:45:38;100503.09;;;30.70;43.06
54948;BME280;41113;41.882;12.530;2022-08-21T09:50:36;100501.75;;;31.03;42.90
54948;BME280;41113;41.882;12.530;2022-08-21T09:53:02;100497.09;;;31.23;41.29
54948;BME280;41113;41.882;12.530;2022-08-21T09:55:34;100494.03;;;31.25;41.53
54948;BME280;41113;41.882;12.530;2022-08-21T09:58:30;100497.63;;;31.41;41.03
54948;BME280;41113;41.882;12.530;2022-08-21T10:00:58;100492.63;;;31.43;41.75
54948;BME280;41113;41.882;12.530;2022-08-21T10:03:24;100494.28;;;31.49;41.54
54948;BME280;41113;41.882;12.530;2022-08-21T10:08:19;100488.19;;;31.32;41.29
54948;BME280;41113;41.882;12.530;2022-08-21T10:10:45;100481.81;;;31.26;41.01
54948;BME280;41113;41.882;12.530;2022-08-21T10:13:19;100474.59;;;31.35;41.60
54948;BME280;41113;41.882;12.530;2022-08-21T10:21:48;100470.41;;;31.43;41.83
54948;BME280;41113;41.882;12.530;2022-08-21T10:24:31;100467.91;;;31.56;39.46
54948;BME280;41113;41.882;12.530;2022-08-21T10:29:56;100465.06;;;31.82;39.72
54948;BME280;41113;41.882;12.530;2022-08-21T10:35:29;100454.81;;;31.82;39.88
54948;BME280;41113;41.882;12.530;2022-08-21T10:40:54;100445.66;;;31.77;38.18
54948;BME280;41113;41.882;12.530;2022-08-21T10:46:42;100437.91;;;31.64;38.25
54948;BME280;41113;41.882;12.530;2022-08-21T10:49:40;100437.66;;;31.55;38.89
54948;BME280;41113;41.882;12.530;2022-08-21T10:55:16;100427.94;;;31.47;40.20
54948;BME280;41113;41.882;12.530;2022-08-21T10:57:47;100427.44;;;31.30;36.38
54948;BME280;41113;41.882;12.530;2022-08-21T11:00:21;100421.59;;;31.26;36.24
54948;BME280;41113;41.882;12.530;2022-08-21T11:05:42;100412.00;;;31.94;36.83
54948;BME280;41113;41.882;12.530;2022-08-21T11:08:17;100411.38;;;32.07;37.09
54948;BME280;41113;41.882;12.530;2022-08-21T11:10:49;100410.63;;;31.86;33.04
54948;BME280;41113;41.882;12.530;2022-08-21T11:13:35;100400.97;;;31.73;34.44
54948;BME280;41113;41.882;12.530;2022-08-21T11:16:09;100403.41;;;31.85;35.70
54948;BME280;41113;41.882;12.530;2022-08-21T11:18:43;100401.59;;;32.14;35.85
54948;BME280;41113;41.882;12.530;2022-08-21T11:21:41;100391.31;;;32.25;35.21
54948;BME280;41113;41.882;12.530;2022-08-21T11:24:21;100394.06;;;32.30;35.25
54948;BME280;41113;41.882;12.530;2022-08-21T11:29:34;100387.13;;;32.23;35.18
54948;BME280;41113;41.882;12.530;2022-08-21T11:34:51;100377.72;;;32.13;34.98
54948;BME280;41113;41.882;12.530;2022-08-21T11:48:46;100369.78;;;31.92;34.71
54948;BME280;41113;41.882;12.530;2022-08-21T11:51:18;100368.69;;;31.93;35.57
54948;BME280;41113;41.882;12.530;2022-08-21T11:53:52;100378.97;;;31.92;35.92
54948;BME280;41113;41.882;12.530;2022-08-21T11:56:25;100381.47;;;31.88;36.58
54948;BME280;41113;41.882;12.530;2022-08-21T11:58:59;100374.25;;;31.87;36.73
54948;BME280;41113;41.882;12.530;2022-08-21T12:01:34;100380.66;;;31.78;38.05
54948;BME280;41113;41.882;12.530;2022-08-21T12:04:49;100380.41;;;31.69;38.61
54948;BME280;41113;41.882;12.530;2022-08-21T12:06:55;100376.00;;;31.58;40.17
54948;BME280;41113;41.882;12.530;2022-08-21T12:12:11;100379.13;;;31.31;41.86
54948;BME280;41113;41.882;12.530;2022-08-21T12:17:06;100370.53;;;31.17;41.17
54948;BME280;41113;41.882;12.530;2022-08-21T12:19:32;100366.09;;;31.11;41.24
54948;BME280;41113;41.882;12.530;2022-08-21T12:21:59;100366.09;;;31.11;41.12
54948;BME280;41113;41.882;12.530;2022-08-21T12:26:55;100371.06;;;31.14;40.87
54948;BME280;41113;41.882;12.530;2022-08-21T12:29:25;100359.44;;;31.17;40.86
54948;BME280;41113;41.882;12.530;2022-08-21T12:32:03;100371.06;;;31.14;41.06
54948;BME280;41113;41.882;12.530;2022-08-21T12:34:46;100365.53;;;31.14;40.97
54948;BME280;41113;41.882;12.530;2022-08-21T12:37:44;100357.22;;;31.09;40.88
54948;BME280;41113;41.882;12.530;2022-08-21T12:41:00;100354.47;;;31.04;41.49
54948;BME280;41113;41.882;12.530;2022-08-21T12:43:01;100351.69;;;30.99;41.46
54948;BME280;41113;41.882;12.530;2022-08-21T12:45:33;100358.91;;;31.00;41.57
54948;BME280;41113;41.882;12.530;2022-08-21T12:50:50;100350.56;;;31.05;40.79
54948;BME280;41113;41.882;12.530;2022-08-21T12:55:53;100348.34;;;31.12;40.17
54948;BME280;41113;41.882;12.530;2022-08-21T12:58:25;100336.69;;;31.10;39.45
54948;BME280;41113;41.882;12.530;2022-08-21T13:00:54;100337.25;;;31.17;36.78
54948;BME280;41113;41.882;12.530;2022-08-21T13:03:22;100342.25;;;31.25;38.45
54948;BME280;41113;41.882;12.530;2022-08-21T13:05:48;100338.88;;;31.39;38.60
54948;BME280;41113;41.882;12.530;2022-08-21T13:08:18;100336.06;;;31.44;38.51
54948;BME280;41113;41.882;12.530;2022-08-21T13:10:47;100336.03;;;31.49;37.83
54948;BME280;41113;41.882;12.530;2022-08-21T13:13:22;100326.88;;;31.48;36.63
54948;BME280;41113;41.882;12.530;2022-08-21T13:15:48;100333.28;;;31.44;37.86
54948;BME280;41113;41.882;12.530;2022-08-21T13:18:24;100324.91;;;31.54;36.99
54948;BME280;41113;41.882;12.530;2022-08-21T13:20:50;100322.16;;;31.59;38.10
54948;BME280;41113;41.882;12.530;2022-08-21T13:23:28;100317.97;;;31.62;38.03
54948;BME280;41113;41.882;12.530;2022-08-21T13:25:54;100318.19;;;31.70;38.80
54948;BME280;41113;41.882;12.530;2022-08-21T13:28:20;100315.41;;;31.75;38.91
54948;BME280;41113;41.882;12.530;2022-08-21T13:30:48;100309.28;;;31.78;38.80
54948;BME280;41113;41.882;12.530;2022-08-21T13:33:16;100306.81;;;31.77;39.24
54948;BME280;41113;41.882;12.530;2022-08-21T13:38:36;100315.34;;;31.85;38.96
54948;BME280;41113;41.882;12.530;2022-08-21T13:41:19;100298.66;;;31.96;38.79
54948;BME280;41113;41.882;12.530;2022-08-21T13:43:55;100301.97;;;31.98;38.88
54948;BME280;41113;41.882;12.530;2022-08-21T13:46:22;100296.97;;;32.00;38.88
54948;BME280;41113;41.882;12.530;2022-08-21T13:48:49;100290.84;;;31.98;38.99
54948;BME280;41113;41.882;12.530;2022-08-21T13:51:15;100299.47;;;31.96;39.08
54948;BME280;41113;41.882;12.530;2022-08-21T13:56:06;100294.19;;;32.00;39.02
54948;BME280;41113;41.882;12.530;2022-08-21T14:00:59;100287.53;;;31.96;39.41
54948;BME280;41113;41.882;12.530;2022-08-21T14:03:38;100282.56;;;31.93;38.33
54948;BME280;41113;41.882;12.530;2022-08-21T14:06:15;100283.69;;;31.92;39.08
54948;BME280;41113;41.882;12.530;2022-08-21T14:08:42;100277.84;;;31.93;39.03
54948;BME280;41113;41.882;12.530;2022-08-21T14:11:12;100282.56;;;31.93;38.95